sensor_id;sensor_type;location;lat;lon;timestamp;temperature;humidity
47660;DHT22;33403;43.608;1.458;2023-05-14T00:01:24;13.40;99.90
47660;DHT22;33403;43.608;1.458;2023-05-14T00:03:50;13.40;99.90
47660;DHT22;33403;43.608;1.458;2023-05-14T00:06:16;13.50;99.90
47660;DHT22;33403;43.608;1.458;2023-05-14T00:08:41;13.40;99.90
47660;DHT22;33403;43.608;1.458;2023-05-14T00:11:07;13.40;99.90
47660;DHT22;33403;43.608;1.458;2023-05-14T00:13:34;13.40;99.90
47660;DHT22;33403;43.608;1.458;2023-05-14T00:16:00;13.40;99.90
47660;DHT22;33403;43.608;1.458;2023-05-14T00:18:26;13.30;99.90
47660;DHT22;33403;43.608;1.458;2023-05-14T00:20:51;13.30;99.90
47660;DHT22;33403;43.608;1.458;2023-05-14T00:23:20;13.20;99.90
47660;DHT22;33403;43.608;1.458;2023-05-14T00:25:46;13.20;99.90
47660;DHT22;33403;43.608;1.458;2023-05-14T00:28:11;13.20;99.90
47660;DHT22;33403;43.608;1.458;2023-05-14T00:30:37;13.20;99.90
47660;DHT22;33403;43.608;1.458;2023-05-14T00:33:04;13.30;99.90
47660;DHT22;33403;43.608;1.458;2023-05-14T00:35:30;13.30;99.90
47660;DHT22;33403;43.608;1.458;2023-05-14T00:37:56;13.20;99.90
47660;DHT22;33403;43.608;1.458;2023-05-14T00:40:25;13.30;99.90
47660;DHT22;33403;43.608;1.458;2023-05-14T00:42:51;13.30;99.90
47660;DHT22;33403;43.608;1.458;2023-05-14T00:45:17;13.40;99.90
47660;DHT22;33403;43.608;1.458;2023-05-14T00:47:42;13.40;99.90
47660;DHT22;33403;43.608;1.458;2023-05-14T00:50:09;13.40;99.90
47660;DHT22;33403;43.608;1.458;2023-05-14T00:52:36;13.40;99.90
47660;DHT22;33403;43.608;1.458;2023-05-14T00:55:03;13.40;99.90
47660;DHT22;33403;43.608;1.458;2023-05-14T00:57:30;13.50;99.90
47660;DHT22;33403;43.608;1.458;2023-05-14T00:59:57;13.50;99.90
47660;DHT22;33403;43.608;1.458;2023-05-14T01:02:22;13.50;99.90
47660;DHT22;33403;43.608;1.458;2023-05-14T01:04:49;13.50;99.90
47660;DHT22;33403;43.608;1.458;2023-05-14T01:17:21;13.40;99.90
47660;DHT22;33403;43.608;1.458;2023-05-14T01:19:47;13.40;99.90
47660;DHT22;33403;43.608;1.458;2023-05-14T01:22:13;13.40;99.90
47660;DHT22;33403;43.608;1.458;2023-05-14T01:24:39;13.40;99.90
47660;DHT22;33403;43.608;1.458;2023-05-14T01:30:15;13.20;99.90
47660;DHT22;33403;43.608;1.458;2023-05-14T01:32:45;13.20;99.90
47660;DHT22;33403;43.608;1.458;2023-05-14T01:35:13;13.20;99.90
47660;DHT22;33403;43.608;1.458;2023-05-14T01:37:40;13.20;99.90
47660;DHT22;33403;43.608;1.458;2023-05-14T01:40:07;13.10;99.90
47660;DHT22;33403;43.608;1.458;2023-05-14T01:42:34;13.10;99.90
47660;DHT22;33403;43.608;1.458;2023-05-14T01:45:01;13.10;99.90
47660;DHT22;33403;43.608;1.458;2023-05-14T01:47:27;13.10;99.90
47660;DHT22;33403;43.608;1.458;2023-05-14T01:49:52;13.10;99.90
47660;DHT22;33403;43.608;1.458;2023-05-14T01:52:18;13.20;99.90
47660;DHT22;33403;43.608;1.458;2023-05-14T01:54:46;13.20;99.90
47660;DHT22;33403;43.608;1.458;2023-05-14T01:57:12;13.20;99.90
47660;DHT22;33403;43.608;1.458;2023-05-14T01:59:37;13.10;99.90
47660;DHT22;33403;43.608;1.458;2023-05-14T02:02:03;13.10;99.90
47660;DHT22;33403;43.608;1.458;2023-05-14T02:04:29;13.10;99.90
47660;DHT22;33403;43.608;1.458;2023-05-14T02:06:54;13.10;99.90
47660;DHT22;33403;43.608;1.458;2023-05-14T02:09:20;13.10;99.90
47660;DHT22;33403;43.608;1.458;2023-05-14T02:11:46;13.10;99.90
47660;DHT22;33403;43.608;1.458;2023-05-14T02:14:11;13.10;99.90
47660;DHT22;33403;43.608;1.458;2023-05-14T02:16:37;13.20;99.90
47660;DHT22;33403;43.608;1.458;2023-05-14T02:19:02;13.20;99.90
47660;DHT22;33403;43.608;1.458;2023-05-14T02:21:28;13.20;99.90
47660;DHT22;33403;43.608;1.458;2023-05-14T02:23:54;13.20;99.90
47660;DHT22;33403;43.608;1.458;2023-05-14T02:26:20;13.20;99.90
47660;DHT22;33403;43.608;1.458;2023-05-14T02:28:46;13.10;99.90
47660;DHT22;33403;43.608;1.458;2023-05-14T02:31:11;13.20;99.90
47660;DHT22;33403;43.608;1.458;2023-05-14T02:33:37;13.20;99.90
47660;DHT22;33403;43.608;1.458;2023-05-14T02:36:03;13.30;99.90
47660;DHT22;33403;43.608;1.458;2023-05-14T02:38:28;13.30;99.90
47660;DHT22;33403;43.608;1.458;2023-05-14T02:40:54;13.30;99.90
47660;DHT22;33403;43.608;1.458;2023-05-14T02:43:19;13.30;99.90
47660;DHT22;33403;43.608;1.458;2023-05-14T02:45:46;13.30;99.90
47660;DHT22;33403;43.608;1.458;2023-05-14T02:48:11;13.30;99.90
47660;DHT22;33403;43.608;1.458;2023-05-14T02:50:37;13.30;99.90
47660;DHT22;33403;43.608;1.458;2023-05-14T02:53:03;13.40;99.90
47660;DHT22;33403;43.608;1.458;2023-05-14T02:55:28;13.30;99.90
47660;DHT22;33403;43.608;1.458;2023-05-14T02:57:54;13.40;99.90
47660;DHT22;33403;43.608;1.458;2023-05-14T03:00:21;13.40;99.90
47660;DHT22;33403;43.608;1.458;2023-05-14T03:02:47;13.40;99.90
47660;DHT22;33403;43.608;1.458;2023-05-14T03:05:12;13.40;99.90
47660;DHT22;33403;43.608;1.458;2023-05-14T03:07:38;13.40;99.90
47660;DHT22;33403;43.608;1.458;2023-05-14T03:10:04;13.30;99.90
47660;DHT22;33403;43.608;1.458;2023-05-14T03:12:30;13.30;99.90
47660;DHT22;33403;43.608;1.458;2023-05-14T03:14:56;13.30;99.90
47660;DHT22;33403;43.608;1.458;2023-05-14T03:17:21;13.30;99.90
47660;DHT22;33403;43.608;1.458;2023-05-14T03:19:47;13.20;99.90
47660;DHT22;33403;43.608;1.458;2023-05-14T03:22:13;13.30;99.90
47660;DHT22;33403;43.608;1.458;2023-05-14T03:24:39;13.20;99.90
47660;DHT22;33403;43.608;1.458;2023-05-14T03:27:05;13.20;99.90
47660;DHT22;33403;43.608;1.458;2023-05-14T03:29:31;13.10;99.90
47660;DHT22;33403;43.608;1.458;2023-05-14T03:31:56;13.10;99.90
47660;DHT22;33403;43.608;1.458;2023-05-14T03:34:22;13.10;99.90
47660;DHT22;33403;43.608;1.458;2023-05-14T03:36:48;13.00;99.90
47660;DHT22;33403;43.608;1.458;2023-05-14T03:39:13;13.00;99.90
47660;DHT22;33403;43.608;1.458;2023-05-14T03:41:46;13.00;99.90
47660;DHT22;33403;43.608;1.458;2023-05-14T03:44:12;12.90;99.90
47660;DHT22;33403;43.608;1.458;2023-05-14T03:46:37;13.00;99.90
47660;DHT22;33403;43.608;1.458;2023-05-14T03:49:03;12.90;99.90
47660;DHT22;33403;43.608;1.458;2023-05-14T03:51:29;12.80;99.90
47660;DHT22;33403;43.608;1.458;2023-05-14T03:53:56;12.80;99.90
47660;DHT22;33403;43.608;1.458;2023-05-14T03:56:23;12.90;99.90
47660;DHT22;33403;43.608;1.458;2023-05-14T03:58:49;12.90;99.90
47660;DHT22;33403;43.608;1.458;2023-05-14T04:01:14;12.80;99.90
47660;DHT22;33403;43.608;1.458;2023-05-14T04:03:40;12.90;99.90
47660;DHT22;33403;43.608;1.458;2023-05-14T04:06:06;12.90;99.90
47660;DHT22;33403;43.608;1.458;2023-05-14T04:08:31;12.90;99.90
47660;DHT22;33403;43.608;1.458;2023-05-14T04:10:57;12.90;99.90
47660;DHT22;33403;43.608;1.458;2023-05-14T04:13:22;13.00;99.90
47660;DHT22;33403;43.608;1.458;2023-05-14T04:15:48;12.90;99.90
47660;DHT22;33403;43.608;1.458;2023-05-14T04:18:14;12.90;99.90
47660;DHT22;33403;43.608;1.458;2023-05-14T04:20:39;12.90;99.90
47660;DHT22;33403;43.608;1.458;2023-05-14T04:23:05;12.90;99.90
47660;DHT22;33403;43.608;1.458;2023-05-14T04:25:31;13.00;99.90
47660;DHT22;33403;43.608;1.458;2023-05-14T04:27:56;13.00;99.90
47660;DHT22;33403;43.608;1.458;2023-05-14T04:30:23;13.00;99.90
47660;DHT22;33403;43.608;1.458;2023-05-14T04:32:48;13.00;99.90
47660;DHT22;33403;43.608;1.458;2023-05-14T04:35:14;13.00;99.90
47660;DHT22;33403;43.608;1.458;2023-05-14T04:37:40;13.00;99.90
47660;DHT22;33403;43.608;1.458;2023-05-14T04:40:07;13.00;99.90
47660;DHT22;33403;43.608;1.458;2023-05-14T04:42:33;13.00;99.90
47660;DHT22;33403;43.608;1.458;2023-05-14T04:44:58;12.90;99.90
47660;DHT22;33403;43.608;1.458;2023-05-14T04:47:24;12.90;99.90
47660;DHT22;33403;43.608;1.458;2023-05-14T04:49:50;13.00;99.90
47660;DHT22;33403;43.608;1.458;2023-05-14T04:52:16;13.00;99.90
47660;DHT22;33403;43.608;1.458;2023-05-14T04:54:42;13.00;99.90
47660;DHT22;33403;43.608;1.458;2023-05-14T04:57:07;13.00;99.90
47660;DHT22;33403;43.608;1.458;2023-05-14T04:59:33;13.00;99.90
47660;DHT22;33403;43.608;1.458;2023-05-14T05:01:59;13.00;99.90
47660;DHT22;33403;43.608;1.458;2023-05-14T05:04:24;13.00;99.90
47660;DHT22;33403;43.608;1.458;2023-05-14T05:06:50;13.00;99.90
47660;DHT22;33403;43.608;1.458;2023-05-14T05:09:19;13.10;99.90
47660;DHT22;33403;43.608;1.458;2023-05-14T05:11:45;13.10;99.90
47660;DHT22;33403;43.608;1.458;2023-05-14T05:14:10;13.20;99.90
47660;DHT22;33403;43.608;1.458;2023-05-14T05:16:36;13.10;99.90
47660;DHT22;33403;43.608;1.458;2023-05-14T05:19:01;13.20;99.90
47660;DHT22;33403;43.608;1.458;2023-05-14T05:21:27;13.20;99.90
47660;DHT22;33403;43.608;1.458;2023-05-14T05:23:53;13.20;99.90
47660;DHT22;33403;43.608;1.458;2023-05-14T05:26:18;13.20;99.90
47660;DHT22;33403;43.608;1.458;2023-05-14T05:28:44;13.20;99.90
47660;DHT22;33403;43.608;1.458;2023-05-14T05:31:10;13.20;99.90
47660;DHT22;33403;43.608;1.458;2023-05-14T05:33:35;13.20;99.90
47660;DHT22;33403;43.608;1.458;2023-05-14T05:36:01;13.20;99.90
47660;DHT22;33403;43.608;1.458;2023-05-14T05:38:27;13.20;99.90
47660;DHT22;33403;43.608;1.458;2023-05-14T05:40:52;13.20;99.90
47660;DHT22;33403;43.608;1.458;2023-05-14T05:43:18;13.20;99.90
47660;DHT22;33403;43.608;1.458;2023-05-14T05:45:44;13.20;99.90
47660;DHT22;33403;43.608;1.458;2023-05-14T05:48:10;13.10;99.90
47660;DHT22;33403;43.608;1.458;2023-05-14T05:50:36;13.10;99.90
47660;DHT22;33403;43.608;1.458;2023-05-14T05:53:02;13.10;99.90
47660;DHT22;33403;43.608;1.458;2023-05-14T05:55:28;13.20;99.90
47660;DHT22;33403;43.608;1.458;2023-05-14T05:57:54;13.20;99.90
47660;DHT22;33403;43.608;1.458;2023-05-14T06:00:20;13.30;99.90
47660;DHT22;33403;43.608;1.458;2023-05-14T06:02:45;13.30;99.90
47660;DHT22;33403;43.608;1.458;2023-05-14T06:05:11;13.40;99.90
47660;DHT22;33403;43.608;1.458;2023-05-14T06:07:37;13.40;99.90
47660;DHT22;33403;43.608;1.458;2023-05-14T06:10:03;13.40;99.90
47660;DHT22;33403;43.608;1.458;2023-05-14T06:12:29;13.40;99.90
47660;DHT22;33403;43.608;1.458;2023-05-14T06:14:55;13.40;99.90
47660;DHT22;33403;43.608;1.458;2023-05-14T06:17:23;13.40;99.90
47660;DHT22;33403;43.608;1.458;2023-05-14T06:19:50;13.40;99.90
47660;DHT22;33403;43.608;1.458;2023-05-14T06:22:15;13.50;99.90
47660;DHT22;33403;43.608;1.458;2023-05-14T06:24:41;13.60;99.90
47660;DHT22;33403;43.608;1.458;2023-05-14T06:27:07;13.50;99.90
47660;DHT22;33403;43.608;1.458;2023-05-14T06:29:32;13.50;99.90
47660;DHT22;33403;43.608;1.458;2023-05-14T06:32:02;13.40;99.90
47660;DHT22;33403;43.608;1.458;2023-05-14T06:34:28;13.50;99.90
47660;DHT22;33403;43.608;1.458;2023-05-14T06:36:53;13.60;99.90
47660;DHT22;33403;43.608;1.458;2023-05-14T06:39:19;13.60;99.90
47660;DHT22;33403;43.608;1.458;2023-05-14T06:41:45;13.70;99.90
47660;DHT22;33403;43.608;1.458;2023-05-14T06:44:11;13.70;99.90
47660;DHT22;33403;43.608;1.458;2023-05-14T06:46:36;13.70;99.90
47660;DHT22;33403;43.608;1.458;2023-05-14T06:49:02;13.70;99.90
47660;DHT22;33403;43.608;1.458;2023-05-14T06:51:28;13.70;99.90
47660;DHT22;33403;43.608;1.458;2023-05-14T06:53:54;13.80;99.90
47660;DHT22;33403;43.608;1.458;2023-05-14T06:56:21;13.80;99.90
47660;DHT22;33403;43.608;1.458;2023-05-14T06:58:47;13.90;99.90
47660;DHT22;33403;43.608;1.458;2023-05-14T07:01:13;13.90;99.90
47660;DHT22;33403;43.608;1.458;2023-05-14T07:03:38;14.00;99.90
47660;DHT22;33403;43.608;1.458;2023-05-14T07:06:04;14.00;99.90
47660;DHT22;33403;43.608;1.458;2023-05-14T07:08:31;14.00;99.90
47660;DHT22;33403;43.608;1.458;2023-05-14T07:10:56;14.00;99.90
47660;DHT22;33403;43.608;1.458;2023-05-14T07:13:22;14.10;99.90
47660;DHT22;33403;43.608;1.458;2023-05-14T07:15:48;14.10;99.90
47660;DHT22;33403;43.608;1.458;2023-05-14T07:18:14;14.20;99.90
47660;DHT22;33403;43.608;1.458;2023-05-14T07:20:40;14.30;99.90
47660;DHT22;33403;43.608;1.458;2023-05-14T07:23:05;14.40;99.90
47660;DHT22;33403;43.608;1.458;2023-05-14T07:25:31;14.40;99.90
47660;DHT22;33403;43.608;1.458;2023-05-14T07:27:57;14.60;99.90
47660;DHT22;33403;43.608;1.458;2023-05-14T07:30:22;14.80;99.90
47660;DHT22;33403;43.608;1.458;2023-05-14T07:32:48;15.00;99.90
47660;DHT22;33403;43.608;1.458;2023-05-14T07:35:14;15.10;99.90
47660;DHT22;33403;43.608;1.458;2023-05-14T07:37:40;15.00;99.90
47660;DHT22;33403;43.608;1.458;2023-05-14T07:40:07;15.00;99.90
47660;DHT22;33403;43.608;1.458;2023-05-14T07:42:33;15.00;99.90
47660;DHT22;33403;43.608;1.458;2023-05-14T07:44:59;15.00;99.90
47660;DHT22;33403;43.608;1.458;2023-05-14T07:47:25;15.00;99.90
47660;DHT22;33403;43.608;1.458;2023-05-14T07:49:54;15.10;99.90
47660;DHT22;33403;43.608;1.458;2023-05-14T07:52:21;15.10;99.90
47660;DHT22;33403;43.608;1.458;2023-05-14T07:54:46;15.30;99.90
47660;DHT22;33403;43.608;1.458;2023-05-14T07:57:12;15.30;99.90
47660;DHT22;33403;43.608;1.458;2023-05-14T07:59:37;15.30;99.90
47660;DHT22;33403;43.608;1.458;2023-05-14T08:02:03;15.40;99.90
47660;DHT22;33403;43.608;1.458;2023-05-14T08:04:29;15.50;99.90
47660;DHT22;33403;43.608;1.458;2023-05-14T08:06:55;15.40;99.90
47660;DHT22;33403;43.608;1.458;2023-05-14T08:09:22;15.30;99.90
47660;DHT22;33403;43.608;1.458;2023-05-14T08:11:48;15.20;99.90
47660;DHT22;33403;43.608;1.458;2023-05-14T08:14:14;15.30;99.90
47660;DHT22;33403;43.608;1.458;2023-05-14T08:16:40;15.30;99.90
47660;DHT22;33403;43.608;1.458;2023-05-14T08:19:05;15.30;99.90
47660;DHT22;33403;43.608;1.458;2023-05-14T08:21:31;15.20;99.90
47660;DHT22;33403;43.608;1.458;2023-05-14T08:23:57;15.10;99.90
47660;DHT22;33403;43.608;1.458;2023-05-14T08:26:23;15.10;99.90
47660;DHT22;33403;43.608;1.458;2023-05-14T08:28:48;15.10;99.90
47660;DHT22;33403;43.608;1.458;2023-05-14T08:31:14;15.10;99.90
47660;DHT22;33403;43.608;1.458;2023-05-14T08:33:40;15.10;99.90
47660;DHT22;33403;43.608;1.458;2023-05-14T08:36:06;15.20;99.90
47660;DHT22;33403;43.608;1.458;2023-05-14T08:38:32;15.30;99.90
47660;DHT22;33403;43.608;1.458;2023-05-14T08:40:58;15.40;99.90
47660;DHT22;33403;43.608;1.458;2023-05-14T08:46:21;15.70;99.90
47660;DHT22;33403;43.608;1.458;2023-05-14T08:48:52;15.80;99.90
47660;DHT22;33403;43.608;1.458;2023-05-14T08:51:20;15.90;99.90
47660;DHT22;33403;43.608;1.458;2023-05-14T08:53:46;15.90;99.90
47660;DHT22;33403;43.608;1.458;2023-05-14T08:56:13;16.00;99.90
47660;DHT22;33403;43.608;1.458;2023-05-14T08:58:40;15.90;99.90
47660;DHT22;33403;43.608;1.458;2023-05-14T09:01:06;15.90;99.90
47660;DHT22;33403;43.608;1.458;2023-05-14T09:03:33;15.90;99.90
47660;DHT22;33403;43.608;1.458;2023-05-14T09:06:01;15.80;99.90
47660;DHT22;33403;43.608;1.458;2023-05-14T09:08:27;15.80;99.90
47660;DHT22;33403;43.608;1.458;2023-05-14T09:10:53;15.90;99.90
47660;DHT22;33403;43.608;1.458;2023-05-14T09:13:18;15.90;99.90
47660;DHT22;33403;43.608;1.458;2023-05-14T09:15:44;15.80;99.90
47660;DHT22;33403;43.608;1.458;2023-05-14T09:18:10;15.70;99.90
47660;DHT22;33403;43.608;1.458;2023-05-14T09:20:37;15.70;99.90
47660;DHT22;33403;43.608;1.458;2023-05-14T09:23:03;15.90;99.90
47660;DHT22;33403;43.608;1.458;2023-05-14T09:25:32;16.00;99.90
47660;DHT22;33403;43.608;1.458;2023-05-14T09:27:58;16.20;99.90
47660;DHT22;33403;43.608;1.458;2023-05-14T09:30:24;16.30;99.90
47660;DHT22;33403;43.608;1.458;2023-05-14T09:32:53;16.50;99.90
47660;DHT22;33403;43.608;1.458;2023-05-14T09:35:21;16.70;99.90
47660;DHT22;33403;43.608;1.458;2023-05-14T09:37:56;16.90;99.90
47660;DHT22;33403;43.608;1.458;2023-05-14T09:40:22;17.10;99.90
47660;DHT22;33403;43.608;1.458;2023-05-14T09:42:48;17.00;99.90
47660;DHT22;33403;43.608;1.458;2023-05-14T09:45:15;16.80;99.90
47660;DHT22;33403;43.608;1.458;2023-05-14T09:47:41;16.70;99.90
47660;DHT22;33403;43.608;1.458;2023-05-14T09:50:07;16.90;99.90
47660;DHT22;33403;43.608;1.458;2023-05-14T09:52:33;17.20;99.90
47660;DHT22;33403;43.608;1.458;2023-05-14T09:54:59;17.40;99.90
47660;DHT22;33403;43.608;1.458;2023-05-14T09:57:26;17.50;99.90
47660;DHT22;33403;43.608;1.458;2023-05-14T09:59:52;17.70;99.90
47660;DHT22;33403;43.608;1.458;2023-05-14T10:02:23;17.70;99.90
47660;DHT22;33403;43.608;1.458;2023-05-14T10:04:51;17.50;99.90
47660;DHT22;33403;43.608;1.458;2023-05-14T10:07:21;17.40;99.90
47660;DHT22;33403;43.608;1.458;2023-05-14T10:09:49;17.40;99.90
47660;DHT22;33403;43.608;1.458;2023-05-14T10:12:21;17.50;99.90
47660;DHT22;33403;43.608;1.458;2023-05-14T10:14:49;17.70;99.90
47660;DHT22;33403;43.608;1.458;2023-05-14T10:17:20;17.90;99.90
47660;DHT22;33403;43.608;1.458;2023-05-14T10:19:51;18.20;99.90
47660;DHT22;33403;43.608;1.458;2023-05-14T10:22:22;18.10;99.90
47660;DHT22;33403;43.608;1.458;2023-05-14T10:24:48;18.10;99.90
47660;DHT22;33403;43.608;1.458;2023-05-14T10:27:20;17.90;99.90
47660;DHT22;33403;43.608;1.458;2023-05-14T10:29:53;17.60;99.90
47660;DHT22;33403;43.608;1.458;2023-05-14T10:32:23;17.30;99.90
47660;DHT22;33403;43.608;1.458;2023-05-14T10:34:50;17.30;99.90
47660;DHT22;33403;43.608;1.458;2023-05-14T10:37:21;17.50;99.90
47660;DHT22;33403;43.608;1.458;2023-05-14T10:42:37;17.60;99.90
47660;DHT22;33403;43.608;1.458;2023-05-14T10:45:17;17.70;99.90
47660;DHT22;33403;43.608;1.458;2023-05-14T10:47:46;17.70;99.90
47660;DHT22;33403;43.608;1.458;2023-05-14T10:50:13;18.00;99.90
47660;DHT22;33403;43.608;1.458;2023-05-14T10:52:44;18.00;99.90
47660;DHT22;33403;43.608;1.458;2023-05-14T10:55:14;18.00;99.90
47660;DHT22;33403;43.608;1.458;2023-05-14T10:57:43;18.30;99.90
47660;DHT22;33403;43.608;1.458;2023-05-14T11:00:12;18.30;99.90
47660;DHT22;33403;43.608;1.458;2023-05-14T11:02:39;18.00;99.90
47660;DHT22;33403;43.608;1.458;2023-05-14T11:07:34;18.10;99.90
47660;DHT22;33403;43.608;1.458;2023-05-14T11:12:40;18.30;99.90
47660;DHT22;33403;43.608;1.458;2023-05-14T11:15:25;18.30;99.90
47660;DHT22;33403;43.608;1.458;2023-05-14T11:17:52;18.40;99.90
47660;DHT22;33403;43.608;1.458;2023-05-14T11:20:18;18.60;99.90
47660;DHT22;33403;43.608;1.458;2023-05-14T11:22:46;18.70;99.90
47660;DHT22;33403;43.608;1.458;2023-05-14T11:25:12;18.60;99.90
47660;DHT22;33403;43.608;1.458;2023-05-14T11:27:39;18.40;99.90
47660;DHT22;33403;43.608;1.458;2023-05-14T11:30:16;18.50;99.90
47660;DHT22;33403;43.608;1.458;2023-05-14T11:32:47;18.60;99.90
47660;DHT22;33403;43.608;1.458;2023-05-14T11:35:13;18.50;99.90
47660;DHT22;33403;43.608;1.458;2023-05-14T11:37:39;18.30;99.90
47660;DHT22;33403;43.608;1.458;2023-05-14T11:40:13;18.40;99.90
47660;DHT22;33403;43.608;1.458;2023-05-14T11:42:39;18.60;99.90
47660;DHT22;33403;43.608;1.458;2023-05-14T11:45:05;18.50;99.90
47660;DHT22;33403;43.608;1.458;2023-05-14T11:47:31;18.30;99.90
47660;DHT22;33403;43.608;1.458;2023-05-14T11:49:58;18.50;99.90
47660;DHT22;33403;43.608;1.458;2023-05-14T11:52:23;18.70;99.90
47660;DHT22;33403;43.608;1.458;2023-05-14T11:54:49;18.90;99.90
47660;DHT22;33403;43.608;1.458;2023-05-14T11:57:19;18.90;99.90
47660;DHT22;33403;43.608;1.458;2023-05-14T11:59:46;19.00;99.90
47660;DHT22;33403;43.608;1.458;2023-05-14T12:02:14;18.80;99.90
47660;DHT22;33403;43.608;1.458;2023-05-14T12:04:43;18.60;99.90
47660;DHT22;33403;43.608;1.458;2023-05-14T12:07:14;18.60;99.90
47660;DHT22;33403;43.608;1.458;2023-05-14T12:09:42;18.70;99.90
47660;DHT22;33403;43.608;1.458;2023-05-14T12:12:13;18.80;99.90
47660;DHT22;33403;43.608;1.458;2023-05-14T12:14:40;18.90;99.90
47660;DHT22;33403;43.608;1.458;2023-05-14T12:17:22;18.80;99.90
47660;DHT22;33403;43.608;1.458;2023-05-14T12:19:50;18.50;99.90
47660;DHT22;33403;43.608;1.458;2023-05-14T12:22:20;18.40;99.90
47660;DHT22;33403;43.608;1.458;2023-05-14T12:24:57;18.10;99.90
47660;DHT22;33403;43.608;1.458;2023-05-14T12:27:23;17.90;99.90
47660;DHT22;33403;43.608;1.458;2023-05-14T12:30:03;17.70;99.90
47660;DHT22;33403;43.608;1.458;2023-05-14T12:32:33;17.50;99.90
47660;DHT22;33403;43.608;1.458;2023-05-14T12:34:59;17.40;99.90
47660;DHT22;33403;43.608;1.458;2023-05-14T12:37:28;17.50;99.90
47660;DHT22;33403;43.608;1.458;2023-05-14T12:39:54;17.70;99.90
47660;DHT22;33403;43.608;1.458;2023-05-14T12:42:19;18.00;99.90
47660;DHT22;33403;43.608;1.458;2023-05-14T12:44:45;18.10;99.90
47660;DHT22;33403;43.608;1.458;2023-05-14T12:47:11;18.20;99.90
47660;DHT22;33403;43.608;1.458;2023-05-14T12:49:36;18.30;99.90
47660;DHT22;33403;43.608;1.458;2023-05-14T12:52:02;18.50;99.90
47660;DHT22;33403;43.608;1.458;2023-05-14T12:54:28;18.70;99.90
47660;DHT22;33403;43.608;1.458;2023-05-14T12:56:56;19.00;99.90
47660;DHT22;33403;43.608;1.458;2023-05-14T12:59:22;19.30;99.90
47660;DHT22;33403;43.608;1.458;2023-05-14T13:01:47;19.40;99.90
47660;DHT22;33403;43.608;1.458;2023-05-14T13:04:13;19.30;99.90
47660;DHT22;33403;43.608;1.458;2023-05-14T13:06:39;19.10;99.90
47660;DHT22;33403;43.608;1.458;2023-05-14T13:09:06;19.10;99.90
47660;DHT22;33403;43.608;1.458;2023-05-14T13:11:32;19.10;99.90
47660;DHT22;33403;43.608;1.458;2023-05-14T13:13:58;19.10;99.90
47660;DHT22;33403;43.608;1.458;2023-05-14T13:16:25;19.30;99.90
47660;DHT22;33403;43.608;1.458;2023-05-14T13:18:51;19.30;99.90
47660;DHT22;33403;43.608;1.458;2023-05-14T13:21:17;19.20;99.90
47660;DHT22;33403;43.608;1.458;2023-05-14T13:23:42;19.10;99.90
47660;DHT22;33403;43.608;1.458;2023-05-14T13:26:08;18.90;99.90
47660;DHT22;33403;43.608;1.458;2023-05-14T13:28:34;18.90;99.90
47660;DHT22;33403;43.608;1.458;2023-05-14T13:33:30;19.40;99.90
47660;DHT22;33403;43.608;1.458;2023-05-14T13:35:56;19.70;99.90
47660;DHT22;33403;43.608;1.458;2023-05-14T13:38:21;20.10;99.90
47660;DHT22;33403;43.608;1.458;2023-05-14T13:40:47;20.30;99.90
47660;DHT22;33403;43.608;1.458;2023-05-14T13:43:12;20.30;99.90
47660;DHT22;33403;43.608;1.458;2023-05-14T13:45:41;20.20;99.90
47660;DHT22;33403;43.608;1.458;2023-05-14T13:48:06;20.10;99.90
47660;DHT22;33403;43.608;1.458;2023-05-14T13:50:32;20.10;99.90
47660;DHT22;33403;43.608;1.458;2023-05-14T13:52:58;20.10;99.90
47660;DHT22;33403;43.608;1.458;2023-05-14T13:55:23;20.00;99.90
47660;DHT22;33403;43.608;1.458;2023-05-14T13:57:49;20.00;99.90
47660;DHT22;33403;43.608;1.458;2023-05-14T14:00:15;20.00;99.90
47660;DHT22;33403;43.608;1.458;2023-05-14T14:02:40;20.00;99.90
47660;DHT22;33403;43.608;1.458;2023-05-14T14:05:06;20.00;99.90
47660;DHT22;33403;43.608;1.458;2023-05-14T14:07:32;20.00;99.90
47660;DHT22;33403;43.608;1.458;2023-05-14T14:09:58;20.10;99.90
47660;DHT22;33403;43.608;1.458;2023-05-14T14:12:26;20.20;99.90
47660;DHT22;33403;43.608;1.458;2023-05-14T14:14:51;20.40;99.90
47660;DHT22;33403;43.608;1.458;2023-05-14T14:17:17;20.50;99.90
47660;DHT22;33403;43.608;1.458;2023-05-14T14:19:43;20.50;99.90
47660;DHT22;33403;43.608;1.458;2023-05-14T14:22:08;20.20;99.90
47660;DHT22;33403;43.608;1.458;2023-05-14T14:24:34;20.00;99.90
47660;DHT22;33403;43.608;1.458;2023-05-14T14:27:00;19.70;99.90
47660;DHT22;33403;43.608;1.458;2023-05-14T14:29:26;19.40;99.90
47660;DHT22;33403;43.608;1.458;2023-05-14T14:31:55;19.20;99.90
47660;DHT22;33403;43.608;1.458;2023-05-14T14:34:21;19.10;99.90
47660;DHT22;33403;43.608;1.458;2023-05-14T14:36:46;19.10;99.90
47660;DHT22;33403;43.608;1.458;2023-05-14T14:39:12;19.00;99.90
47660;DHT22;33403;43.608;1.458;2023-05-14T14:41:38;19.00;99.90
47660;DHT22;33403;43.608;1.458;2023-05-14T14:44:03;19.00;99.90
47660;DHT22;33403;43.608;1.458;2023-05-14T14:46:30;19.00;99.90
47660;DHT22;33403;43.608;1.458;2023-05-14T14:48:56;19.00;99.90
47660;DHT22;33403;43.608;1.458;2023-05-14T14:51:21;19.00;99.90
47660;DHT22;33403;43.608;1.458;2023-05-14T14:53:47;19.10;99.90
47660;DHT22;33403;43.608;1.458;2023-05-14T14:56:13;19.20;99.90
47660;DHT22;33403;43.608;1.458;2023-05-14T14:58:38;19.30;99.90
47660;DHT22;33403;43.608;1.458;2023-05-14T15:01:04;19.30;99.90
47660;DHT22;33403;43.608;1.458;2023-05-14T15:03:30;19.30;99.90
47660;DHT22;33403;43.608;1.458;2023-05-14T15:05:55;19.40;99.90
47660;DHT22;33403;43.608;1.458;2023-05-14T15:08:25;19.50;99.90
47660;DHT22;33403;43.608;1.458;2023-05-14T15:10:57;19.40;99.90
47660;DHT22;33403;43.608;1.458;2023-05-14T15:13:23;19.30;99.90
47660;DHT22;33403;43.608;1.458;2023-05-14T15:15:50;19.20;99.90
47660;DHT22;33403;43.608;1.458;2023-05-14T15:18:16;19.10;99.90
47660;DHT22;33403;43.608;1.458;2023-05-14T15:20:42;19.10;99.90
47660;DHT22;33403;43.608;1.458;2023-05-14T15:23:08;19.10;99.90
47660;DHT22;33403;43.608;1.458;2023-05-14T15:25:35;19.00;99.90
47660;DHT22;33403;43.608;1.458;2023-05-14T15:28:04;19.10;99.90
47660;DHT22;33403;43.608;1.458;2023-05-14T15:30:29;19.20;99.90
47660;DHT22;33403;43.608;1.458;2023-05-14T15:32:55;19.40;99.90
47660;DHT22;33403;43.608;1.458;2023-05-14T15:35:21;19.60;99.90
47660;DHT22;33403;43.608;1.458;2023-05-14T15:37:46;19.70;99.90
47660;DHT22;33403;43.608;1.458;2023-05-14T15:40:12;19.60;99.90
47660;DHT22;33403;43.608;1.458;2023-05-14T15:42:40;19.60;99.90
47660;DHT22;33403;43.608;1.458;2023-05-14T15:45:07;19.50;99.90
47660;DHT22;33403;43.608;1.458;2023-05-14T15:47:33;19.40;99.90
47660;DHT22;33403;43.608;1.458;2023-05-14T15:49:59;19.50;99.90
47660;DHT22;33403;43.608;1.458;2023-05-14T15:52:25;19.60;99.90